createdAt,value
2018-09-17T00:01:46.738Z,99.90
2018-09-17T00:04:15.242Z,99.90
2018-09-17T00:06:43.708Z,99.90
2018-09-17T00:09:13.706Z,99.90
2018-09-17T00:29:04.375Z,99.90
2018-09-17T00:31:33.576Z,99.90
2018-09-17T00:34:01.974Z,99.90
2018-09-17T00:36:30.420Z,99.90
2018-09-17T00:38:58.979Z,99.90
2018-09-17T00:41:27.532Z,99.90
2018-09-17T00:43:55.960Z,99.90
2018-09-17T00:46:25.410Z,99.90
2018-09-17T00:48:53.898Z,99.90
2018-09-17T01:08:44.321Z,99.90
2018-09-17T01:11:13.838Z,99.90
2018-09-17T01:13:42.320Z,99.90
2018-09-17T01:16:12.060Z,99.90
2018-09-17T01:18:41.193Z,99.90
2018-09-17T01:21:11.264Z,99.90
2018-09-17T01:23:40.554Z,99.90
2018-09-17T01:26:08.954Z,99.90
2018-09-17T01:28:38.725Z,99.90
2018-09-17T01:31:07.670Z,99.90
2018-09-17T01:33:36.053Z,99.90
2018-09-17T01:36:05.480Z,99.90
2018-09-17T01:38:33.987Z,99.90
2018-09-17T01:41:03.381Z,99.90
2018-09-17T01:43:31.958Z,99.90
2018-09-17T01:46:00.401Z,99.90
2018-09-17T01:48:28.964Z,99.90
2018-09-17T01:50:57.417Z,99.90
2018-09-17T02:10:47.633Z,99.90
2018-09-17T02:13:16.290Z,99.90
2018-09-17T02:15:45.406Z,99.90
2018-09-17T02:18:13.882Z,99.90
2018-09-17T02:20:42.435Z,99.90
2018-09-17T02:23:10.834Z,99.90
2018-09-17T02:25:40.032Z,99.90
2018-09-17T02:28:08.528Z,99.90
2018-09-17T02:30:36.988Z,99.90
2018-09-17T02:33:05.483Z,99.90
2018-09-17T02:35:34.521Z,99.90
2018-09-17T02:38:03.079Z,99.90
2018-09-17T02:57:52.997Z,99.90
2018-09-17T03:00:21.652Z,99.90
2018-09-17T03:20:11.621Z,99.90
2018-09-17T03:22:41.324Z,99.90
2018-09-17T03:25:09.809Z,99.90
2018-09-17T03:27:38.489Z,99.90
2018-09-17T03:30:07.115Z,99.90
2018-09-17T03:32:35.613Z,99.90
2018-09-17T03:35:04.434Z,99.90
2018-09-17T03:37:32.898Z,99.90
2018-09-17T03:40:02.230Z,99.90
2018-09-17T03:42:30.747Z,99.90
2018-09-17T03:44:59.832Z,99.90
2018-09-17T03:47:29.713Z,99.90
2018-09-17T03:49:58.238Z,99.90
2018-09-17T03:52:26.935Z,99.90
2018-09-17T03:54:55.473Z,99.90
2018-09-17T03:57:25.892Z,99.90
2018-09-17T03:59:55.377Z,99.90
2018-09-17T04:02:23.894Z,99.90
2018-09-17T04:04:52.622Z,99.90
2018-09-17T04:07:21.729Z,99.90
2018-09-17T04:09:50.199Z,99.90
2018-09-17T04:29:40.650Z,99.90
2018-09-17T04:32:09.243Z,99.90
2018-09-17T04:34:37.772Z,99.90
2018-09-17T04:37:06.947Z,99.90
2018-09-17T04:39:36.038Z,99.90
2018-09-17T04:42:04.474Z,99.90
2018-09-17T04:44:32.963Z,99.90
2018-09-17T04:47:01.498Z,99.90
2018-09-17T05:06:51.629Z,99.90
2018-09-17T05:26:41.988Z,99.90
2018-09-17T05:29:10.525Z,99.90
2018-09-17T05:31:39.754Z,99.90
2018-09-17T05:34:08.945Z,99.90
2018-09-17T05:36:37.961Z,99.90
2018-09-17T05:39:09.344Z,99.90
2018-09-17T05:41:38.362Z,99.90
2018-09-17T06:01:27.778Z,99.90
2018-09-17T06:03:56.490Z,99.90
2018-09-17T06:06:26.109Z,99.90
2018-09-17T06:08:55.355Z,99.90
2018-09-17T06:11:23.999Z,99.90
2018-09-17T06:13:52.687Z,99.90
2018-09-17T06:16:21.437Z,99.90
2018-09-17T06:18:50.476Z,99.90
2018-09-17T06:21:18.986Z,99.90
2018-09-17T06:23:47.396Z,99.90
2018-09-17T06:26:15.985Z,99.90
2018-09-17T06:28:44.512Z,99.90
2018-09-17T06:31:12.914Z,99.90
2018-09-17T06:51:03.448Z,99.90
2018-09-17T06:53:32.093Z,99.90
2018-09-17T06:56:00.460Z,99.90
2018-09-17T06:58:28.942Z,99.90
2018-09-17T07:00:58.193Z,99.90
2018-09-17T07:03:26.683Z,99.90
2018-09-17T07:05:55.139Z,99.90
2018-09-17T07:08:23.813Z,99.90
2018-09-17T07:10:52.326Z,99.90
2018-09-17T07:13:20.814Z,99.90
2018-09-17T07:15:50.648Z,99.90
2018-09-17T07:18:19.171Z,99.90
2018-09-17T07:20:49.385Z,99.90
2018-09-17T07:23:18.459Z,99.90
2018-09-17T07:25:47.495Z,99.90
2018-09-17T07:28:16.557Z,99.90
2018-09-17T07:30:45.026Z,99.90
2018-09-17T07:33:13.528Z,99.90
2018-09-17T07:35:43.317Z,99.90
2018-09-17T07:38:11.809Z,99.90
2018-09-17T07:40:41.566Z,99.90
2018-09-17T07:43:10.939Z,99.90
2018-09-17T07:45:40.678Z,99.90
2018-09-17T07:48:09.101Z,99.90
2018-09-17T07:50:38.250Z,99.90
2018-09-17T07:53:07.375Z,99.90
2018-09-17T07:55:36.089Z,99.90
2018-09-17T07:58:05.668Z,99.90
2018-09-17T08:00:34.377Z,99.90
2018-09-17T08:03:03.026Z,99.90
2018-09-17T08:05:31.652Z,99.90
2018-09-17T08:08:00.103Z,99.90
2018-09-17T08:10:29.861Z,99.90
2018-09-17T08:12:58.457Z,99.90
2018-09-17T08:15:26.910Z,99.90
2018-09-17T08:17:55.390Z,99.90
2018-09-17T08:37:45.795Z,99.90
2018-09-17T08:40:14.266Z,99.90
2018-09-17T08:42:44.192Z,99.90
2018-09-17T08:45:12.868Z,99.90
2018-09-17T08:47:41.292Z,99.90
2018-09-17T08:50:09.736Z,99.90
2018-09-17T08:52:38.941Z,99.90
2018-09-17T08:55:10.606Z,99.90
2018-09-17T08:57:44.354Z,99.90
2018-09-17T09:00:18.035Z,99.90
2018-09-17T09:02:51.872Z,99.90
2018-09-17T09:05:25.593Z,99.90
2018-09-17T09:07:55.425Z,99.90
2018-09-17T09:10:29.321Z,99.90
2018-09-17T09:13:03.375Z,99.90
2018-09-17T09:15:37.187Z,99.90
2018-09-17T09:18:06.939Z,99.90
2018-09-17T09:20:35.914Z,99.90
2018-09-17T09:23:04.582Z,99.90
2018-09-17T09:25:33.109Z,99.90
2018-09-17T09:28:01.703Z,99.90
2018-09-17T09:30:30.276Z,99.90
2018-09-17T09:32:59.508Z,99.90
2018-09-17T09:35:27.962Z,99.90
2018-09-17T09:37:56.421Z,99.90
2018-09-17T09:40:24.885Z,99.90
2018-09-17T09:42:53.958Z,99.90
2018-09-17T09:45:23.100Z,99.90
2018-09-17T09:47:51.562Z,99.90
2018-09-17T09:50:20.085Z,99.90
2018-09-17T09:52:48.747Z,99.90
2018-09-17T09:55:17.354Z,99.90
2018-09-17T10:15:12.482Z,99.90
2018-09-17T10:17:46.451Z,99.90
2018-09-17T10:20:15.270Z,99.90
2018-09-17T10:22:43.721Z,99.90
2018-09-17T10:25:12.224Z,99.90
2018-09-17T10:27:40.688Z,99.90
2018-09-17T10:30:09.226Z,99.90
2018-09-17T10:32:37.922Z,99.90
2018-09-17T10:35:07.151Z,99.90
2018-09-17T10:37:36.382Z,99.90
2018-09-17T10:57:27.123Z,99.90
2018-09-17T10:59:56.760Z,99.90
2018-09-17T11:02:25.214Z,99.90
2018-09-17T11:04:53.902Z,99.90
2018-09-17T11:07:22.439Z,99.90
2018-09-17T11:09:51.657Z,99.90
2018-09-17T11:12:20.181Z,99.90
2018-09-17T11:14:48.843Z,99.90
2018-09-17T11:17:17.477Z,99.90
2018-09-17T11:19:45.950Z,99.90
2018-09-17T11:22:14.722Z,99.90
2018-09-17T11:24:43.275Z,99.90
2018-09-17T11:27:11.799Z,99.90
2018-09-17T11:29:40.387Z,99.90
2018-09-17T11:32:09.874Z,99.90
2018-09-17T11:34:38.561Z,99.90
2018-09-17T11:37:06.962Z,99.90
2018-09-17T11:39:35.510Z,99.90
2018-09-17T11:42:05.409Z,99.90
2018-09-17T11:44:33.831Z,99.90
2018-09-17T11:47:02.924Z,99.90
2018-09-17T11:49:31.405Z,99.90
2018-09-17T11:52:01.436Z,99.90
2018-09-17T11:54:29.832Z,99.90
2018-09-17T11:56:58.439Z,99.90
2018-09-17T11:59:27.616Z,99.90
2018-09-17T12:02:01.637Z,99.90
2018-09-17T12:04:31.014Z,99.90
2018-09-17T12:24:20.249Z,99.90
2018-09-17T12:26:48.778Z,99.90
2018-09-17T12:29:17.292Z,99.90
2018-09-17T12:31:45.899Z,99.90
2018-09-17T12:34:15.048Z,99.90
2018-09-17T12:36:44.314Z,99.90
2018-09-17T12:39:13.238Z,99.90
2018-09-17T12:41:41.823Z,99.90
2018-09-17T12:44:10.418Z,99.90
2018-09-17T12:46:39.167Z,99.90
2018-09-17T12:49:08.036Z,99.90
2018-09-17T12:51:36.601Z,99.90
2018-09-17T12:54:05.266Z,99.90
2018-09-17T12:56:33.846Z,99.90
2018-09-17T12:59:03.524Z,99.90
2018-09-17T13:18:53.671Z,99.90
2018-09-17T13:38:43.097Z,94.70
2018-09-17T13:41:11.626Z,94.40
2018-09-17T14:00:53.936Z,79.60
2018-09-17T14:03:22.425Z,72.40
2018-09-17T14:05:50.968Z,69.70
2018-09-17T14:25:40.782Z,53.30
2018-09-17T14:28:09.457Z,52.30
2018-09-17T14:47:59.943Z,50.10
2018-09-17T14:50:28.406Z,48.50
2018-09-17T14:52:57.009Z,50.10
2018-09-17T14:55:25.580Z,48.60
2018-09-17T14:57:54.266Z,49.80
2018-09-17T15:00:22.766Z,46.80
2018-09-17T15:20:20.029Z,50.50
2018-09-17T15:40:08.824Z,49.00
2018-09-17T15:59:59.634Z,56.50
2018-09-17T16:02:29.673Z,59.50
2018-09-17T16:04:59.165Z,63.40
2018-09-17T16:07:28.448Z,64.60
2018-09-17T16:09:57.361Z,65.90
2018-09-17T16:29:47.443Z,77.10
2018-09-17T16:32:16.798Z,82.30
2018-09-17T16:34:46.753Z,84.50
2018-09-17T16:37:16.332Z,85.70
2018-09-17T16:39:45.356Z,89.30
2018-09-17T16:42:14.940Z,92.00
2018-09-17T16:44:44.552Z,92.70
2018-09-17T16:47:14.261Z,94.20
2018-09-17T16:49:43.597Z,96.30
2018-09-17T16:52:14.299Z,98.50
2018-09-17T16:54:43.916Z,99.90
2018-09-17T16:57:14.844Z,99.90
2018-09-17T16:59:44.412Z,99.90
2018-09-17T17:02:14.585Z,99.90
2018-09-17T17:04:44.114Z,99.90
2018-09-17T17:07:13.459Z,99.90
2018-09-17T17:27:05.071Z,99.90
2018-09-17T17:29:34.574Z,99.90
2018-09-17T17:32:04.089Z,99.90
2018-09-17T17:34:34.325Z,99.90
2018-09-17T17:37:04.739Z,99.90
2018-09-17T17:39:34.275Z,99.90
2018-09-17T17:42:03.965Z,99.90
2018-09-17T18:01:55.631Z,99.90
2018-09-17T18:04:25.950Z,99.90
2018-09-17T18:06:55.775Z,99.90
2018-09-17T18:09:25.303Z,99.90
2018-09-17T18:11:54.889Z,99.90
2018-09-17T18:14:25.836Z,99.90
2018-09-17T18:16:55.353Z,99.90
2018-09-17T18:19:24.774Z,99.90
2018-09-17T18:21:54.152Z,99.90
2018-09-17T18:24:23.739Z,99.90
2018-09-17T18:26:53.365Z,99.90
2018-09-17T18:29:22.984Z,99.90
2018-09-17T18:31:52.503Z,99.90
2018-09-17T18:34:22.115Z,99.90
2018-09-17T18:36:51.623Z,99.90
2018-09-17T18:39:21.256Z,99.90
2018-09-17T18:41:51.348Z,99.90
2018-09-17T18:44:20.863Z,99.90
2018-09-17T18:46:50.288Z,99.90
2018-09-17T18:49:19.877Z,99.90
2018-09-17T18:51:50.504Z,99.90
2018-09-17T18:54:20.147Z,99.90
2018-09-17T18:56:49.839Z,99.90
2018-09-17T18:59:19.543Z,99.90
2018-09-17T19:01:49.158Z,99.90
2018-09-17T19:04:18.765Z,99.90
2018-09-17T19:06:48.279Z,99.90
2018-09-17T19:09:17.913Z,99.90
2018-09-17T19:11:47.622Z,99.90
2018-09-17T19:14:22.733Z,99.90
2018-09-17T19:16:56.470Z,99.90
2018-09-17T19:19:26.043Z,99.90
2018-09-17T19:22:01.260Z,99.90
2018-09-17T19:24:30.904Z,99.90
2018-09-17T19:27:00.823Z,99.90
2018-09-17T19:29:30.690Z,99.90
2018-09-17T19:32:00.256Z,99.90
2018-09-17T19:34:29.961Z,99.90
2018-09-17T19:37:05.515Z,99.90
2018-09-17T19:39:40.642Z,99.90
2018-09-17T19:42:10.187Z,99.90
2018-09-17T19:44:39.762Z,99.90
2018-09-17T19:47:09.302Z,99.90
2018-09-17T19:49:38.649Z,99.90
2018-09-17T20:09:28.299Z,99.90
2018-09-17T20:29:20.168Z,99.90
2018-09-17T20:49:11.164Z,99.90
2018-09-17T20:51:40.838Z,99.90
2018-09-17T20:54:11.267Z,99.90
2018-09-17T20:56:40.765Z,99.90
2018-09-17T20:59:10.592Z,99.90
2018-09-17T21:19:02.018Z,99.90
2018-09-17T21:21:30.944Z,99.90
2018-09-17T21:23:59.714Z,99.90
2018-09-17T21:26:28.234Z,99.90
2018-09-17T21:28:58.114Z,99.90
2018-09-17T21:31:26.572Z,99.90
2018-09-17T21:33:57.128Z,99.90
2018-09-17T21:53:47.932Z,99.90
2018-09-17T21:56:17.108Z,99.90
2018-09-17T21:58:45.525Z,99.90
2018-09-17T22:04:05.172Z,99.90
2018-09-17T22:06:34.357Z,99.90
2018-09-17T22:09:04.674Z,99.90
2018-09-17T22:11:33.183Z,99.90
2018-09-17T22:31:24.546Z,99.90
2018-09-17T22:33:53.237Z,99.90
2018-09-17T22:53:43.877Z,99.90
2018-09-17T22:56:12.785Z,99.90
2018-09-17T23:16:02.835Z,99.90
2018-09-17T23:18:31.321Z,99.90
2018-09-17T23:21:00.445Z,99.90
2018-09-17T23:23:28.856Z,99.90
2018-09-17T23:25:57.677Z,99.90
2018-09-17T23:28:26.669Z,99.90
2018-09-17T23:30:55.150Z,99.90
2018-09-17T23:33:24.470Z,99.90
2018-09-17T23:35:52.958Z,99.90
2018-09-17T23:38:21.388Z,99.90
2018-09-17T23:40:51.162Z,99.90
2018-09-17T23:43:19.626Z,99.90
2018-09-17T23:45:48.839Z,99.90
2018-09-17T23:48:17.497Z,99.90
2018-09-17T23:50:45.974Z,99.90
2018-09-17T23:53:15.278Z,99.90
2018-09-17T23:55:43.741Z,99.90
2018-09-17T23:58:12.457Z,99.90
